createdAt,value
2022-12-09T00:00:46.227Z,48.72
2022-12-09T00:03:12.731Z,49.03
2022-12-09T00:08:33.626Z,49.01
2022-12-09T00:11:03.063Z,49.00
2022-12-09T00:13:29.564Z,49.62
2022-12-09T00:15:55.968Z,49.04
2022-12-09T00:18:22.453Z,49.36
2022-12-09T00:23:34.930Z,49.02
2022-12-09T00:26:01.380Z,49.44
2022-12-09T00:28:28.060Z,49.41
2022-12-09T00:30:54.734Z,49.19
2022-12-09T00:33:21.123Z,49.13
2022-12-09T00:38:41.374Z,49.41
2022-12-09T00:41:08.619Z,49.34
2022-12-09T00:43:35.293Z,49.28
2022-12-09T00:46:02.522Z,49.57
2022-12-09T00:48:30.057Z,49.58
2022-12-09T00:53:50.455Z,49.36
2022-12-09T00:56:16.903Z,49.11
2022-12-09T00:58:44.105Z,49.46
2022-12-09T01:01:13.503Z,49.08
2022-12-09T01:03:40.156Z,48.88
2022-12-09T01:08:50.843Z,49.16
2022-12-09T01:11:17.384Z,49.74
2022-12-09T01:13:46.631Z,49.40
2022-12-09T01:16:13.318Z,49.13
2022-12-09T01:18:39.793Z,49.09
2022-12-09T01:21:07.061Z,49.59
2022-12-09T01:23:36.205Z,50.03
2022-12-09T01:26:02.605Z,49.24
2022-12-09T01:28:29.849Z,49.29
2022-12-09T01:30:56.292Z,49.27
2022-12-09T01:33:23.766Z,49.44
2022-12-09T01:35:50.129Z,49.09
2022-12-09T01:38:16.531Z,49.81
2022-12-09T01:40:42.951Z,49.93
2022-12-09T01:43:10.235Z,49.80
2022-12-09T01:45:36.627Z,49.53
2022-12-09T01:48:03.994Z,49.46
2022-12-09T01:50:30.492Z,50.19
2022-12-09T01:52:56.912Z,49.68
2022-12-09T01:55:23.358Z,49.95
2022-12-09T01:57:50.024Z,49.76
2022-12-09T02:00:17.452Z,49.69
2022-12-09T02:02:44.840Z,49.38
2022-12-09T02:05:11.477Z,49.75
2022-12-09T02:07:38.250Z,49.71
2022-12-09T02:10:05.352Z,49.61
2022-12-09T02:12:34.266Z,50.50
2022-12-09T02:15:00.742Z,49.62
2022-12-09T02:17:27.197Z,50.45
2022-12-09T02:19:53.754Z,49.51
2022-12-09T02:22:20.421Z,49.74
2022-12-09T02:24:47.061Z,49.56
2022-12-09T02:27:13.519Z,49.84
2022-12-09T02:29:42.905Z,49.66
2022-12-09T02:32:10.445Z,50.09
2022-12-09T02:34:36.866Z,49.64
2022-12-09T02:37:03.250Z,49.64
2022-12-09T02:42:26.595Z,49.90
2022-12-09T02:44:53.286Z,49.57
2022-12-09T02:47:19.908Z,49.20
2022-12-09T02:49:48.220Z,49.04
2022-12-09T02:52:14.833Z,49.10
2022-12-09T02:57:39.354Z,49.97
2022-12-09T03:00:08.872Z,49.56
2022-12-09T03:02:35.709Z,50.15
2022-12-09T03:05:03.094Z,49.61
2022-12-09T03:07:29.667Z,49.43
2022-12-09T03:12:50.857Z,49.49
2022-12-09T03:15:17.516Z,49.45
2022-12-09T03:17:46.007Z,49.29
2022-12-09T03:20:14.023Z,49.18
2022-12-09T03:22:40.694Z,49.49
2022-12-09T03:28:01.967Z,49.37
2022-12-09T03:30:29.284Z,49.22
2022-12-09T03:32:55.820Z,49.62
2022-12-09T03:35:25.355Z,50.29
2022-12-09T03:37:51.819Z,49.06
2022-12-09T03:43:14.050Z,49.49
2022-12-09T03:45:43.331Z,49.70
2022-12-09T03:48:10.336Z,49.18
2022-12-09T03:50:37.715Z,49.71
2022-12-09T03:53:05.999Z,49.46
2022-12-09T03:58:19.264Z,50.05
2022-12-09T04:00:46.178Z,49.21
2022-12-09T04:03:14.812Z,49.47
2022-12-09T04:05:42.187Z,49.41
2022-12-09T04:08:09.500Z,49.19
2022-12-09T04:13:25.170Z,49.60
2022-12-09T04:15:51.533Z,49.79
2022-12-09T04:18:20.891Z,49.82
2022-12-09T04:20:47.702Z,50.18
2022-12-09T04:23:14.147Z,50.90
2022-12-09T04:28:24.821Z,49.12
2022-12-09T04:30:52.186Z,50.55
2022-12-09T04:33:19.708Z,49.77
2022-12-09T04:35:46.242Z,48.94
2022-12-09T04:38:15.556Z,48.94
2022-12-09T04:43:38.547Z,48.93
2022-12-09T04:46:05.047Z,49.10
2022-12-09T04:48:31.622Z,49.01
2022-12-09T04:50:58.421Z,49.26
2022-12-09T04:53:24.986Z,49.24
2022-12-09T04:58:38.481Z,49.00
2022-12-09T05:01:05.294Z,49.35
2022-12-09T05:03:35.419Z,49.06
2022-12-09T05:06:02.156Z,49.34
2022-12-09T05:08:31.769Z,48.96
2022-12-09T05:13:55.995Z,48.94
2022-12-09T05:16:24.823Z,49.04
2022-12-09T05:18:51.567Z,48.90
2022-12-09T05:21:18.591Z,49.32
2022-12-09T05:23:47.269Z,49.07
2022-12-09T05:29:00.766Z,49.03
2022-12-09T05:31:27.633Z,48.93
2022-12-09T05:33:56.347Z,48.91
2022-12-09T05:36:25.202Z,49.36
2022-12-09T05:38:54.078Z,48.65
2022-12-09T05:44:05.770Z,49.16
2022-12-09T05:46:35.279Z,48.94
2022-12-09T05:49:02.154Z,49.10
2022-12-09T05:51:28.748Z,48.77
2022-12-09T05:53:56.590Z,49.13
2022-12-09T05:59:17.934Z,49.18
2022-12-09T06:01:45.859Z,48.96
2022-12-09T06:04:13.671Z,48.81
2022-12-09T06:06:40.658Z,48.54
2022-12-09T06:09:07.872Z,49.00
2022-12-09T06:14:19.781Z,48.26
2022-12-09T06:16:47.444Z,48.04
2022-12-09T06:19:14.068Z,47.49
2022-12-09T06:21:40.931Z,48.05
2022-12-09T06:24:08.642Z,47.88
2022-12-09T06:29:28.969Z,47.58
2022-12-09T06:31:56.406Z,47.13
2022-12-09T06:34:24.568Z,47.30
2022-12-09T06:36:51.456Z,47.31
2022-12-09T06:39:18.903Z,46.77
2022-12-09T06:44:39.544Z,45.16
2022-12-09T06:47:06.234Z,44.67
2022-12-09T06:49:33.706Z,43.95
2022-12-09T06:52:00.668Z,43.95
2022-12-09T06:54:27.225Z,43.69
2022-12-09T06:59:38.133Z,44.41
2022-12-09T07:02:04.856Z,44.60
2022-12-09T07:04:32.301Z,44.76
2022-12-09T07:06:59.118Z,45.31
2022-12-09T07:09:26.880Z,45.79
2022-12-09T07:14:38.248Z,46.80
2022-12-09T07:17:05.620Z,47.18
2022-12-09T07:19:33.001Z,47.59
2022-12-09T07:21:59.864Z,47.79
2022-12-09T07:24:26.655Z,48.23
2022-12-09T07:29:49.361Z,48.69
2022-12-09T07:32:17.129Z,47.76
2022-12-09T07:34:44.144Z,48.01
2022-12-09T07:37:10.854Z,48.07
2022-12-09T07:39:38.341Z,48.26
2022-12-09T07:44:59.032Z,47.67
2022-12-09T07:47:26.027Z,48.11
2022-12-09T07:49:52.903Z,47.23
2022-12-09T07:52:20.484Z,47.48
2022-12-09T07:54:47.183Z,48.38
2022-12-09T07:59:58.711Z,47.02
2022-12-09T08:02:25.280Z,47.89
2022-12-09T08:04:53.518Z,47.45
2022-12-09T08:07:20.257Z,47.76
2022-12-09T08:09:47.222Z,47.82
2022-12-09T08:15:08.363Z,47.67
2022-12-09T08:17:35.800Z,48.23
2022-12-09T08:20:03.532Z,47.52
2022-12-09T08:22:31.818Z,47.80
2022-12-09T08:24:59.584Z,48.40
2022-12-09T08:30:12.560Z,48.42
2022-12-09T08:32:40.294Z,48.56
2022-12-09T08:35:07.385Z,48.24
2022-12-09T08:37:35.116Z,48.06
2022-12-09T08:40:02.099Z,47.93
2022-12-09T08:45:13.813Z,47.60
2022-12-09T08:47:41.213Z,47.56
2022-12-09T08:50:08.512Z,47.24
2022-12-09T08:52:40.348Z,47.19
2022-12-09T08:55:07.744Z,47.17
2022-12-09T09:00:28.413Z,47.03
2022-12-09T09:02:56.443Z,47.46
2022-12-09T09:05:24.093Z,47.09
2022-12-09T09:07:51.423Z,46.83
2022-12-09T09:10:19.117Z,47.07
2022-12-09T09:15:31.472Z,46.54
2022-12-09T09:17:59.774Z,46.64
2022-12-09T09:20:26.459Z,46.62
2022-12-09T09:22:56.821Z,46.74
2022-12-09T09:25:28.716Z,46.54
2022-12-09T09:30:50.298Z,46.38
2022-12-09T09:33:17.726Z,46.58
2022-12-09T09:35:44.309Z,46.55
2022-12-09T09:38:10.817Z,46.59
2022-12-09T09:40:37.418Z,46.53
2022-12-09T09:45:48.021Z,46.18
2022-12-09T09:48:14.905Z,46.38
2022-12-09T09:50:42.997Z,46.33
2022-12-09T09:53:10.907Z,45.99
2022-12-09T09:55:37.549Z,46.24
2022-12-09T09:58:04.677Z,46.55
2022-12-09T10:00:31.750Z,46.53
2022-12-09T10:02:58.430Z,46.63
2022-12-09T10:05:25.535Z,46.67
2022-12-09T10:07:54.677Z,46.49
2022-12-09T10:10:23.034Z,46.56
2022-12-09T10:12:50.068Z,46.56
2022-12-09T10:15:17.842Z,46.36
2022-12-09T10:17:45.948Z,46.55
2022-12-09T10:20:12.877Z,46.73
2022-12-09T10:22:41.403Z,46.66
2022-12-09T10:25:09.101Z,46.87
2022-12-09T10:27:37.343Z,46.66
2022-12-09T10:30:05.022Z,46.87
2022-12-09T10:32:33.556Z,46.68
2022-12-09T10:35:01.442Z,46.83
2022-12-09T10:37:28.348Z,46.69
2022-12-09T10:39:56.251Z,46.50
2022-12-09T10:42:24.160Z,46.40
2022-12-09T10:44:52.552Z,46.56
2022-12-09T10:47:19.289Z,46.26
2022-12-09T10:49:46.147Z,46.55
2022-12-09T10:52:13.288Z,46.84
2022-12-09T10:54:40.115Z,46.64
2022-12-09T10:57:08.086Z,46.90
2022-12-09T10:59:34.787Z,46.26
2022-12-09T11:02:01.950Z,46.46
2022-12-09T11:04:29.556Z,46.55
2022-12-09T11:06:59.815Z,46.52
2022-12-09T11:09:27.302Z,46.46
2022-12-09T11:11:55.398Z,46.14
2022-12-09T11:14:22.486Z,46.52
2022-12-09T11:19:43.749Z,46.33
2022-12-09T11:22:11.490Z,46.26
2022-12-09T11:24:38.575Z,46.33
2022-12-09T11:27:05.165Z,46.39
2022-12-09T11:29:31.900Z,46.31
2022-12-09T11:34:52.872Z,46.55
2022-12-09T11:37:19.531Z,46.49
2022-12-09T11:39:46.018Z,46.09
2022-12-09T11:42:16.946Z,46.33
2022-12-09T11:44:45.196Z,46.50
2022-12-09T11:49:56.668Z,46.55
2022-12-09T11:52:24.101Z,46.34
2022-12-09T11:54:50.635Z,46.82
2022-12-09T11:57:18.041Z,46.65
2022-12-09T11:59:44.560Z,46.72
2022-12-09T12:04:57.028Z,45.84
2022-12-09T12:07:24.473Z,45.89
2022-12-09T12:09:51.001Z,45.59
2022-12-09T12:12:17.589Z,45.34
2022-12-09T12:14:44.979Z,44.99
2022-12-09T12:19:57.654Z,44.42
2022-12-09T12:22:25.242Z,44.83
2022-12-09T12:24:51.873Z,44.55
2022-12-09T12:27:18.336Z,44.54
2022-12-09T12:29:45.737Z,44.53
2022-12-09T12:35:06.468Z,44.23
2022-12-09T12:37:34.164Z,44.25
2022-12-09T12:40:00.641Z,44.38
2022-12-09T12:42:28.087Z,44.03
2022-12-09T12:44:55.509Z,43.94
2022-12-09T12:50:16.747Z,43.91
2022-12-09T12:52:58.521Z,43.94
2022-12-09T12:55:25.999Z,43.68
2022-12-09T12:57:52.741Z,43.87
2022-12-09T13:00:20.121Z,44.03
2022-12-09T13:05:31.574Z,43.54
2022-12-09T13:07:58.059Z,43.52
2022-12-09T13:10:24.504Z,43.74
2022-12-09T13:12:51.973Z,44.02
2022-12-09T13:15:19.407Z,43.92
2022-12-09T13:20:31.174Z,44.04
2022-12-09T13:22:58.615Z,43.94
2022-12-09T13:25:26.006Z,43.86
2022-12-09T13:27:53.416Z,43.86
2022-12-09T13:30:19.917Z,43.92
2022-12-09T13:35:43.233Z,44.05
2022-12-09T13:38:09.739Z,43.81
2022-12-09T13:40:36.232Z,43.72
2022-12-09T13:43:02.743Z,43.84
2022-12-09T13:45:29.324Z,43.76
2022-12-09T13:50:51.885Z,43.70
2022-12-09T13:53:18.439Z,43.93
2022-12-09T13:55:44.967Z,43.59
2022-12-09T13:58:12.361Z,43.78
2022-12-09T14:00:38.851Z,43.73
2022-12-09T14:05:51.608Z,43.43
2022-12-09T14:08:19.103Z,43.53
2022-12-09T14:10:46.592Z,43.80
2022-12-09T14:13:13.047Z,43.56
2022-12-09T14:15:40.598Z,43.41
2022-12-09T14:20:52.887Z,43.74
2022-12-09T14:23:20.269Z,43.60
2022-12-09T14:25:51.201Z,43.67
2022-12-09T14:28:17.976Z,43.74
2022-12-09T14:30:45.588Z,43.88
2022-12-09T14:35:56.317Z,43.99
2022-12-09T14:38:22.770Z,43.96
2022-12-09T14:40:49.434Z,43.86
2022-12-09T14:43:15.963Z,43.82
2022-12-09T14:45:43.513Z,43.76
2022-12-09T14:51:06.234Z,43.43
2022-12-09T14:53:33.684Z,43.46
2022-12-09T14:56:01.099Z,43.41
2022-12-09T14:58:28.545Z,43.11
2022-12-09T15:00:55.039Z,43.26
2022-12-09T15:06:07.640Z,43.19
2022-12-09T15:08:35.062Z,43.23
2022-12-09T15:11:02.549Z,43.51
2022-12-09T15:13:30.052Z,43.56
2022-12-09T15:15:56.524Z,43.46
2022-12-09T15:21:08.045Z,43.71
2022-12-09T15:23:34.559Z,44.12
2022-12-09T15:26:01.981Z,44.28
2022-12-09T15:28:28.452Z,44.42
2022-12-09T15:30:55.868Z,44.57
2022-12-09T15:36:07.167Z,44.90
2022-12-09T15:38:38.975Z,44.54
2022-12-09T15:41:07.353Z,44.28
2022-12-09T15:43:34.767Z,44.62
2022-12-09T15:46:02.241Z,44.76
2022-12-09T15:51:22.886Z,45.15
2022-12-09T15:53:53.595Z,44.55
2022-12-09T15:56:22.549Z,45.00
2022-12-09T15:58:49.018Z,44.89
2022-12-09T16:01:16.560Z,44.87
2022-12-09T16:06:37.160Z,44.75
2022-12-09T16:09:04.617Z,44.87
2022-12-09T16:11:31.083Z,45.76
2022-12-09T16:13:58.603Z,45.39
2022-12-09T16:16:26.101Z,45.58
2022-12-09T16:21:48.774Z,46.19
2022-12-09T16:24:16.334Z,46.49
2022-12-09T16:26:42.850Z,47.07
2022-12-09T16:29:09.387Z,46.81
2022-12-09T16:31:35.922Z,46.97
2022-12-09T16:36:56.678Z,47.88
2022-12-09T16:39:23.187Z,48.20
2022-12-09T16:41:49.763Z,48.28
2022-12-09T16:44:16.238Z,48.36
2022-12-09T16:46:42.844Z,48.58
2022-12-09T16:51:53.209Z,48.51
2022-12-09T16:54:21.094Z,48.16
2022-12-09T16:56:48.178Z,48.55
2022-12-09T16:59:15.568Z,48.77
2022-12-09T17:01:42.009Z,48.36
2022-12-09T17:07:02.379Z,48.86
2022-12-09T17:09:28.922Z,48.50
2022-12-09T17:11:55.445Z,48.46
2022-12-09T17:14:21.996Z,48.12
2022-12-09T17:16:49.515Z,48.12
2022-12-09T17:22:00.195Z,47.91
2022-12-09T17:24:26.724Z,47.74
2022-12-09T17:26:53.297Z,48.45
2022-12-09T17:29:20.811Z,47.91
2022-12-09T17:31:47.507Z,48.44
2022-12-09T17:34:14.036Z,48.30
2022-12-09T17:36:40.542Z,48.03
2022-12-09T17:39:08.032Z,48.34
2022-12-09T17:41:34.600Z,48.48
2022-12-09T17:44:01.197Z,48.57
2022-12-09T17:46:27.730Z,47.96
2022-12-09T17:48:54.308Z,48.36
2022-12-09T17:51:20.833Z,48.24
2022-12-09T17:53:48.248Z,47.83
2022-12-09T17:56:14.833Z,48.31
2022-12-09T17:58:42.264Z,47.84
2022-12-09T18:01:10.447Z,47.79
2022-12-09T18:03:55.631Z,47.85
2022-12-09T18:06:24.077Z,48.02
2022-12-09T18:08:51.513Z,47.63
2022-12-09T18:11:18.011Z,48.04
2022-12-09T18:13:45.410Z,47.62
2022-12-09T18:16:12.909Z,48.01
2022-12-09T18:18:40.448Z,47.87
2022-12-09T18:21:13.679Z,47.79
2022-12-09T18:23:43.774Z,48.13
2022-12-09T18:26:10.249Z,47.72
2022-12-09T18:28:36.994Z,47.87
2022-12-09T18:31:04.098Z,48.38
2022-12-09T18:33:31.568Z,47.67
2022-12-09T18:35:58.117Z,48.02
2022-12-09T18:38:25.556Z,48.21
2022-12-09T18:40:52.940Z,48.18
2022-12-09T18:43:20.487Z,48.42
2022-12-09T18:45:47.038Z,48.15
2022-12-09T18:48:14.482Z,48.56
2022-12-09T18:50:41.000Z,48.74
2022-12-09T18:53:07.508Z,48.48
2022-12-09T18:55:34.038Z,49.05
2022-12-09T18:58:00.927Z,48.80
2022-12-09T19:00:27.553Z,49.13
2022-12-09T19:02:55.058Z,48.69
2022-12-09T19:05:22.474Z,47.79
2022-12-09T19:10:45.027Z,49.19
2022-12-09T19:13:12.424Z,47.92
2022-12-09T19:15:39.996Z,48.04
2022-12-09T19:18:06.635Z,48.14
2022-12-09T19:20:33.151Z,47.55
2022-12-09T19:25:54.305Z,48.80
2022-12-09T19:28:21.707Z,47.99
2022-12-09T19:30:50.103Z,48.70
2022-12-09T19:33:18.031Z,48.66
2022-12-09T19:35:44.492Z,48.10
2022-12-09T19:40:56.019Z,48.25
2022-12-09T19:43:22.511Z,47.81
2022-12-09T19:45:49.112Z,48.13
2022-12-09T19:48:15.605Z,48.39
2022-12-09T19:50:42.138Z,48.10
2022-12-09T19:56:03.519Z,48.41
2022-12-09T19:58:31.011Z,47.73
2022-12-09T20:00:57.462Z,48.23
2022-12-09T20:03:24.894Z,47.92
2022-12-09T20:05:51.369Z,48.59
2022-12-09T20:11:03.895Z,48.09
2022-12-09T20:13:32.158Z,48.24
2022-12-09T20:15:59.770Z,47.72
2022-12-09T20:18:28.282Z,48.17
2022-12-09T20:20:54.786Z,48.24
2022-12-09T20:26:17.203Z,47.96
2022-12-09T20:28:43.688Z,47.81
2022-12-09T20:31:11.154Z,47.74
2022-12-09T20:33:37.690Z,47.73
2022-12-09T20:36:04.302Z,47.56
2022-12-09T20:41:25.395Z,47.28
2022-12-09T20:43:52.243Z,46.93
2022-12-09T20:46:18.860Z,47.17
2022-12-09T20:48:45.379Z,46.85
2022-12-09T20:51:12.859Z,47.00
2022-12-09T20:56:23.409Z,46.71
2022-12-09T20:58:49.930Z,46.66
2022-12-09T21:01:18.637Z,46.72
2022-12-09T21:03:45.305Z,46.55
2022-12-09T21:06:12.789Z,46.40
2022-12-09T21:11:25.483Z,46.42
2022-12-09T21:13:52.923Z,46.11
2022-12-09T21:16:19.453Z,46.11
2022-12-09T21:18:46.913Z,46.40
2022-12-09T21:21:13.509Z,46.32
2022-12-09T21:26:25.796Z,46.03
2022-12-09T21:28:52.327Z,46.18
2022-12-09T21:31:18.914Z,46.07
2022-12-09T21:33:45.458Z,45.57
2022-12-09T21:36:12.043Z,44.67
2022-12-09T21:41:23.666Z,45.09
2022-12-09T21:43:50.151Z,45.15
2022-12-09T21:46:16.680Z,45.27
2022-12-09T21:48:45.901Z,45.51
2022-12-09T21:51:15.373Z,45.49
2022-12-09T21:56:35.740Z,45.02
2022-12-09T21:59:03.259Z,45.48
2022-12-09T22:01:30.770Z,45.51
2022-12-09T22:03:57.349Z,45.58
2022-12-09T22:06:23.841Z,45.52
2022-12-09T22:11:35.997Z,45.20
2022-12-09T22:14:03.482Z,45.30
2022-12-09T22:16:31.036Z,45.10
2022-12-09T22:18:58.529Z,45.16
2022-12-09T22:21:26.241Z,45.20
2022-12-09T22:26:48.658Z,45.02
2022-12-09T22:29:15.161Z,44.98
2022-12-09T22:31:42.599Z,45.28
2022-12-09T22:34:09.097Z,45.09
2022-12-09T22:36:35.623Z,45.21
2022-12-09T22:41:46.230Z,45.16
2022-12-09T22:44:12.741Z,45.03
2022-12-09T22:46:39.467Z,45.00
2022-12-09T22:49:06.003Z,45.05
2022-12-09T22:51:32.465Z,44.93
2022-12-09T22:56:53.801Z,45.54
2022-12-09T22:59:21.198Z,45.47
2022-12-09T23:01:47.676Z,45.64
2022-12-09T23:04:15.118Z,45.43
2022-12-09T23:06:41.599Z,45.56
2022-12-09T23:12:04.113Z,45.60
2022-12-09T23:14:30.647Z,45.58
2022-12-09T23:16:58.045Z,45.46
2022-12-09T23:19:25.438Z,45.39
2022-12-09T23:21:52.868Z,45.75
2022-12-09T23:27:14.513Z,45.64
2022-12-09T23:29:40.975Z,45.74
2022-12-09T23:32:08.366Z,45.57
2022-12-09T23:34:34.942Z,45.60
2022-12-09T23:37:02.343Z,45.33
2022-12-09T23:42:12.966Z,45.54
2022-12-09T23:44:40.465Z,45.50
2022-12-09T23:47:06.990Z,45.21
2022-12-09T23:49:34.392Z,45.34
2022-12-09T23:52:00.938Z,45.55
2022-12-09T23:57:13.291Z,45.52
2022-12-09T23:59:40.674Z,45.28
